Time;durP1;ratioP1;P1;durP2;ratioP2;P2;SDS_P1;SDS_P2;PMS_P1;PMS_P2;Temp;Humidity;BMP_temperature;BMP_pressure;BME280_temperature;BME280_humidity;BME280_pressure;Samples;Min_cycle;Max_cycle;Signal;HPM_P1;HPM_P2
2023/02/21 02:16:17;;;;;;;0.20;0.20;;;6.60;99.90;;;;;;4966423;28;20043;-74
2023/02/21 02:19:16;;;;;;;0.20;0.20;;;6.60;99.90;;;;;;4975382;28;20082;-74
2023/02/21 02:22:17;;;;;;;0.20;0.20;;;6.60;99.90;;;;;;4978297;28;20109;-74
2023/02/21 02:24:51;;;;;;;0.20;0.20;;;6.60;99.90;;;;;;4994956;28;20514;-74
2023/02/21 02:27:22;;;;;;;;;;;6.50;99.90;;;;;;4978524;28;20615;-75
2023/02/21 02:30:15;;;;;;;0.20;0.20;;;6.50;99.90;;;;;;4993434;28;19913;-74
2023/02/21 02:33:05;;;;;;;0.10;0.10;;;6.50;99.90;;;;;;4995381;28;20018;-74
2023/02/21 02:35:34;;;;;;;0.10;0.10;;;6.50;99.90;;;;;;4995321;28;20031;-74
2023/02/21 02:38:10;;;;;;;0.20;0.20;;;6.50;99.90;;;;;;4977068;28;20022;-74
2023/02/21 02:41:13;;;;;;;0.20;0.20;;;6.50;99.90;;;;;;4975560;28;20030;-74
2023/02/21 02:43:54;;;;;;;0.20;0.20;;;6.50;99.90;;;;;;4975605;28;20027;-74
2023/02/21 02:46:25;;;;;;;0.10;0.10;;;6.60;99.90;;;;;;4990291;28;20022;-73
2023/02/21 02:49:09;;;;;;;0.10;0.10;;;6.50;99.90;;;;;;4994515;28;20395;-75
2023/02/21 02:51:35;;;;;;;0.20;0.20;;;6.40;99.90;;;;;;4978057;28;20034;-74
2023/02/21 02:54:01;;;;;;;0.20;0.20;;;6.40;99.90;;;;;;4995063;28;20084;-74
2023/02/21 02:56:28;;;;;;;0.10;0.10;;;6.50;99.90;;;;;;4994745;28;20031;-75
2023/02/21 02:58:59;;;;;;;0.20;0.20;;;6.50;99.90;;;;;;4994990;28;20026;-75
2023/02/21 03:01:50;;;;;;;0.20;0.20;;;6.40;99.90;;;;;;4977312;28;20029;-75
2023/02/21 03:04:42;;;;;;;0.20;0.20;;;6.40;99.90;;;;;;4994326;28;20030;-75
2023/02/21 03:07:40;;;;;;;0.20;0.20;;;6.40;99.90;;;;;;4993784;28;20065;-74
2023/02/21 03:10:32;;;;;;;0.10;0.10;;;6.40;99.90;;;;;;4977280;28;20029;-75
2023/02/21 03:12:57;;;;;;;0.20;0.20;;;6.40;99.90;;;;;;4975447;28;20369;-75
2023/02/21 03:15:38;;;;;;;0.20;0.20;;;6.50;99.90;;;;;;4975388;28;20037;-74
2023/02/21 03:18:31;;;;;;;0.20;0.20;;;6.50;99.90;;;;;;4975570;28;20027;-75
2023/02/21 03:21:00;;;;;;;0.20;0.20;;;6.50;99.90;;;;;;4957464;28;20436;-74
2023/02/21 03:23:28;;;;;;;0.10;0.10;;;6.50;99.90;;;;;;4992634;28;20106;-74
2023/02/21 03:25:57;;;;;;;0.20;0.20;;;6.60;99.90;;;;;;4998036;28;20392;-75
2023/02/21 03:28:24;;;;;;;0.10;0.10;;;6.60;99.90;;;;;;4998859;28;20398;-74
2023/02/21 03:30:53;;;;;;;0.20;0.20;;;6.50;99.90;;;;;;4980373;28;20126;-73
2023/02/21 03:33:19;;;;;;;0.20;0.20;;;6.50;99.90;;;;;;4979324;28;20027;-74
2023/02/21 03:35:44;;;;;;;0.20;0.20;;;6.50;99.90;;;;;;4978642;28;20031;-74
2023/02/21 03:38:10;;;;;;;0.13;0.13;;;6.60;99.90;;;;;;4982130;28;20036;-75
2023/02/21 03:40:36;;;;;;;0.10;0.10;;;6.60;99.90;;;;;;4992498;28;20026;-74
2023/02/21 03:43:07;;;;;;;0.20;0.20;;;6.60;99.90;;;;;;4998021;28;20050;-74
2023/02/21 03:45:34;;;;;;;0.20;0.20;;;6.70;99.90;;;;;;4998279;28;20029;-74
2023/02/21 03:47:59;;;;;;;0.20;0.20;;;6.70;99.90;;;;;;4997792;28;20054;-74
2023/02/21 03:50:25;;;;;;;0.17;0.17;;;6.70;99.90;;;;;;4997905;28;20026;-74
2023/02/21 03:52:51;;;;;;;0.20;0.20;;;6.70;99.90;;;;;;4997430;28;20022;-74
2023/02/21 03:55:17;;;;;;;0.20;0.20;;;6.70;99.90;;;;;;4998573;28;20031;-74
2023/02/21 03:57:43;;;;;;;0.15;0.15;;;6.70;99.90;;;;;;4997481;28;20549;-74
2023/02/21 04:00:09;;;;;;;0.10;0.10;;;6.60;99.90;;;;;;4980111;28;20030;-74
2023/02/21 04:02:34;;;;;;;0.20;0.20;;;6.60;99.90;;;;;;4997383;28;20018;-74
2023/02/21 04:05:00;;;;;;;0.20;0.20;;;6.60;99.90;;;;;;4980371;28;20395;-74
2023/02/21 04:07:26;;;;;;;0.20;0.20;;;6.60;99.90;;;;;;4997563;28;20028;-74
2023/02/21 04:09:52;;;;;;;0.20;0.20;;;6.60;99.90;;;;;;4997265;28;20023;-74
2023/02/21 04:12:17;;;;;;;0.20;0.20;;;6.70;99.90;;;;;;4996524;28;20400;-74
2023/02/21 04:14:43;;;;;;;0.10;0.10;;;6.70;99.90;;;;;;4980028;28;20034;-74
2023/02/21 04:17:08;;;;;;;0.20;0.20;;;6.60;99.90;;;;;;4995000;28;20033;-74
2023/02/21 04:19:34;;;;;;;0.10;0.10;;;6.70;99.90;;;;;;4995909;28;20035;-75
2023/02/21 04:22:00;;;;;;;0.20;0.20;;;6.60;99.90;;;;;;4996167;28;20034;-74
2023/02/21 04:24:25;;;;;;;0.10;0.10;;;6.60;99.90;;;;;;4994344;28;20023;-74
2023/02/21 04:26:51;;;;;;;0.10;0.10;;;6.60;99.90;;;;;;4997264;28;20081;-75
2023/02/21 04:29:16;;;;;;;0.20;0.20;;;6.60;99.90;;;;;;4992510;28;20495;-75
2023/02/21 04:31:42;;;;;;;0.20;0.20;;;6.70;99.90;;;;;;4997520;28;20125;-74
2023/02/21 04:34:07;;;;;;;0.10;0.10;;;6.70;99.90;;;;;;4996093;28;20081;-74
2023/02/21 04:36:33;;;;;;;0.17;0.17;;;6.70;99.90;;;;;;4997164;28;20026;-74
2023/02/21 04:38:58;;;;;;;0.20;0.20;;;6.70;99.90;;;;;;4979010;28;20480;-74
2023/02/21 04:41:24;;;;;;;0.20;0.20;;;6.70;99.90;;;;;;4997369;28;20034;-74
2023/02/21 04:43:52;;;;;;;0.20;0.20;;;6.70;99.90;;;;;;4994715;28;20027;-74
2023/02/21 04:46:18;;;;;;;0.20;0.20;;;6.80;99.90;;;;;;4996846;28;20037;-74
2023/02/21 04:48:46;;;;;;;0.10;0.10;;;6.70;99.90;;;;;;4996613;28;20026;-74
2023/02/21 04:51:13;;;;;;;0.20;0.20;;;6.80;99.90;;;;;;4996789;28;20062;-73
2023/02/21 04:53:38;;;;;;;0.20;0.20;;;6.80;99.90;;;;;;4979397;28;20037;-74
2023/02/21 04:56:04;;;;;;;0.20;0.20;;;6.70;99.90;;;;;;4996307;28;20443;-74
2023/02/21 04:58:30;;;;;;;0.20;0.20;;;6.70;99.90;;;;;;4996867;28;20030;-74
2023/02/21 05:00:56;;;;;;;0.20;0.20;;;6.80;99.90;;;;;;4996312;28;20077;-75
2023/02/21 05:03:22;;;;;;;0.20;0.20;;;6.80;99.90;;;;;;4995964;28;20077;-74
2023/02/21 05:05:48;;;;;;;0.10;0.10;;;6.80;99.90;;;;;;4996125;28;20022;-74
2023/02/21 05:08:13;;;;;;;0.20;0.20;;;6.80;99.90;;;;;;4993963;28;20021;-74
2023/02/21 05:10:39;;;;;;;0.20;0.20;;;6.80;99.90;;;;;;4996360;28;20034;-74
2023/02/21 05:13:05;;;;;;;0.20;0.20;;;6.80;99.90;;;;;;4977476;28;20054;-74
2023/02/21 05:15:30;;;;;;;0.10;0.10;;;6.80;99.90;;;;;;4994188;28;20022;-74
2023/02/21 05:17:56;;;;;;;0.20;0.20;;;6.80;99.90;;;;;;4996162;28;20086;-75
2023/02/21 05:20:23;;;;;;;0.20;0.20;;;6.70;99.90;;;;;;4993872;28;20128;-75
2023/02/21 05:22:49;;;;;;;0.20;0.20;;;6.70;99.90;;;;;;4978330;28;20033;-75
2023/02/21 05:25:20;;;;;;;0.20;0.20;;;6.70;99.90;;;;;;4993798;28;20375;-75
2023/02/21 05:27:46;;;;;;;0.10;0.10;;;6.70;99.90;;;;;;4995813;28;20472;-75
2023/02/21 05:30:15;;;;;;;0.17;0.17;;;6.70;99.90;;;;;;4995982;28;20423;-75
2023/02/21 05:32:41;;;;;;;0.20;0.20;;;6.80;99.90;;;;;;4996516;28;20022;-75
2023/02/21 05:35:08;;;;;;;0.20;0.20;;;6.80;99.90;;;;;;4995621;28;20031;-75
2023/02/21 05:37:36;;;;;;;0.10;0.10;;;6.80;99.90;;;;;;4994154;28;20033;-75
2023/02/21 05:40:04;;;;;;;0.10;0.10;;;6.80;99.90;;;;;;4995445;28;20152;-75
2023/02/21 05:42:30;;;;;;;0.10;0.10;;;6.70;99.90;;;;;;4996212;28;20029;-75
2023/02/21 05:44:55;;;;;;;0.10;0.10;;;6.70;99.90;;;;;;4995618;28;20023;-74
2023/02/21 05:47:21;;;;;;;0.10;0.10;;;6.80;99.90;;;;;;4995294;28;20060;-75
2023/02/21 05:49:46;;;;;;;0.20;0.20;;;6.70;99.90;;;;;;4995331;28;20026;-75
2023/02/21 05:52:15;;;;;;;0.20;0.20;;;6.70;99.90;;;;;;4995553;28;20026;-75
2023/02/21 05:54:41;;;;;;;0.20;0.20;;;6.70;99.90;;;;;;4995840;28;20038;-75
2023/02/21 05:57:07;;;;;;;0.13;0.13;;;6.70;99.90;;;;;;4995312;28;20077;-75
2023/02/21 05:59:32;;;;;;;0.20;0.20;;;6.60;99.90;;;;;;4995554;28;20554;-75
2023/02/21 06:01:58;;;;;;;0.20;0.20;;;6.60;99.90;;;;;;4995174;28;20030;-75
2023/02/21 06:04:24;;;;;;;0.13;0.13;;;6.70;99.90;;;;;;4995692;28;20031;-74
2023/02/21 06:06:49;;;;;;;0.10;0.10;;;6.70;99.90;;;;;;4995171;28;20026;-75
2023/02/21 06:09:17;;;;;;;0.10;0.10;;;6.70;99.90;;;;;;5008037;23;20061;-75
2023/02/21 06:11:44;;;;;;;0.10;0.10;;;6.70;99.90;;;;;;5014693;28;20446;-75
2023/02/21 06:14:16;;;;;;;0.20;0.20;;;6.70;99.90;;;;;;5013772;28;20120;-74
2023/02/21 06:16:42;;;;;;;0.10;0.10;;;6.70;99.90;;;;;;5014433;28;20029;-74
2023/02/21 06:19:09;;;;;;;0.20;0.20;;;6.80;99.90;;;;;;5014848;28;20399;-75
2023/02/21 06:21:35;;;;;;;0.20;0.20;;;6.80;99.90;;;;;;5015063;28;20149;-75
2023/02/21 06:24:01;;;;;;;0.15;0.15;;;6.80;99.90;;;;;;4995510;28;20575;-75
2023/02/21 06:26:26;;;;;;;0.10;0.10;;;6.80;99.90;;;;;;4995280;28;20037;-75
2023/02/21 06:28:52;;;;;;;0.10;0.10;;;6.80;99.90;;;;;;5010151;28;20029;-75
2023/02/21 06:31:19;;;;;;;0.10;0.10;;;6.80;99.90;;;;;;5013856;28;20026;-75
2023/02/21 06:33:45;;;;;;;0.20;0.20;;;6.80;99.90;;;;;;5014580;28;20380;-75
2023/02/21 06:36:14;;;;;;;0.20;0.20;;;6.80;99.90;;;;;;5015116;28;20026;-75
2023/02/21 06:38:42;;;;;;;0.10;0.10;;;6.80;99.90;;;;;;5012112;28;20030;-75
2023/02/21 06:41:08;;;;;;;0.10;0.10;;;6.80;99.90;;;;;;5014704;28;20018;-75
2023/02/21 06:43:36;;;;;;;0.20;0.20;;;6.80;99.90;;;;;;5004702;28;20146;-74
2023/02/21 06:46:03;;;;;;;0.20;0.20;;;6.80;99.90;;;;;;4994002;28;20101;-75
2023/02/21 06:48:29;;;;;;;0.20;0.20;;;6.80;99.90;;;;;;5000659;28;20014;-75
2023/02/21 06:50:54;;;;;;;0.10;0.10;;;6.80;99.90;;;;;;5014389;28;20072;-75
2023/02/21 06:53:20;;;;;;;0.10;0.10;;;6.80;99.90;;;;;;5014948;28;20487;-75
2023/02/21 06:55:46;;;;;;;0.20;0.20;;;6.80;99.90;;;;;;5014404;28;20103;-75
2023/02/21 06:58:12;;;;;;;0.20;0.20;;;6.80;99.90;;;;;;5016493;28;20022;-75
2023/02/21 07:00:37;;;;;;;0.20;0.20;;;6.80;99.90;;;;;;5017835;28;20026;-75
2023/02/21 07:03:03;;;;;;;0.20;0.20;;;6.90;99.90;;;;;;5018596;28;20032;-75
2023/02/21 07:05:33;;;;;;;0.10;0.10;;;6.90;99.90;;;;;;5018181;28;20037;-74
2023/02/21 07:08:00;;;;;;;0.10;0.10;;;6.90;99.90;;;;;;5018253;28;20021;-73
2023/02/21 07:10:26;;;;;;;0.20;0.20;;;6.90;99.90;;;;;;5016955;28;20069;-75
2023/02/21 07:12:51;;;;;;;0.20;0.20;;;6.90;99.90;;;;;;5017650;28;20045;-75
2023/02/21 07:15:17;;;;;;;0.20;0.20;;;6.90;99.90;;;;;;5018293;28;20554;-75
2023/02/21 07:17:42;;;;;;;0.20;0.20;;;6.90;99.90;;;;;;5016489;28;20026;-75
2023/02/21 07:20:08;;;;;;;0.13;0.13;;;6.90;99.90;;;;;;5018213;28;20479;-75
2023/02/21 07:22:33;;;;;;;0.10;0.10;;;6.90;99.90;;;;;;5032575;28;20029;-75
2023/02/21 07:24:59;;;;;;;0.20;0.20;;;6.90;99.90;;;;;;5018567;28;20372;-76
2023/02/21 07:27:24;;;;;;;0.10;0.10;;;6.90;99.90;;;;;;5017345;28;20045;-76
2023/02/21 07:29:50;;;;;;;0.20;0.20;;;6.90;99.90;;;;;;5106365;23;20061;-78
2023/02/21 07:32:20;;;;;;;0.10;0.10;;;6.90;99.90;;;;;;5002195;28;20081;-78
2023/02/21 07:34:46;;;;;;;0.13;0.13;;;6.90;99.90;;;;;;5003105;28;20049;-78
2023/02/21 07:37:11;;;;;;;0.20;0.20;;;6.90;99.90;;;;;;5001928;28;20019;-78
2023/02/21 07:39:37;;;;;;;0.20;0.20;;;6.90;99.90;;;;;;5008417;23;20038;-78
2023/02/21 07:42:03;;;;;;;0.20;0.20;;;6.90;99.90;;;;;;4984322;28;20030;-78
2023/02/21 07:44:29;;;;;;;0.20;0.20;;;6.90;99.90;;;;;;5001379;28;20026;-78
2023/02/21 07:46:56;;;;;;;0.20;0.20;;;6.90;99.90;;;;;;5003319;28;20033;-78
2023/02/21 07:49:22;;;;;;;0.20;0.20;;;7.00;99.90;;;;;;5000805;28;20050;-78
2023/02/21 07:51:47;;;;;;;0.20;0.20;;;6.90;99.90;;;;;;5001353;28;20092;-79
2023/02/21 07:54:14;;;;;;;0.20;0.20;;;7.00;99.90;;;;;;4973006;28;20032;-77
2023/02/21 07:56:47;;;;;;;0.20;0.20;;;7.00;99.90;;;;;;4979557;28;20056;-77
2023/02/21 07:59:13;;;;;;;;;;;7.00;99.90;;;;;;4980774;28;20042;-77
2023/02/21 08:01:39;;;;;;;0.10;0.10;;;7.10;99.90;;;;;;4964290;28;19905;-77
2023/02/21 08:04:05;;;;;;;0.20;0.20;;;7.10;99.90;;;;;;4997872;28;20073;-77
2023/02/21 08:06:32;;;;;;;0.10;0.10;;;7.10;99.90;;;;;;4989587;28;20045;-77
2023/02/21 08:08:58;;;;;;;0.20;0.20;;;7.20;99.90;;;;;;4978014;28;20034;-77
2023/02/21 08:11:23;;;;;;;0.10;0.10;;;7.30;99.90;;;;;;4977761;28;20121;-77
2023/02/21 08:13:49;;;;;;;0.20;0.20;;;7.30;99.90;;;;;;4985613;28;20038;-79
2023/02/21 08:16:14;;;;;;;0.20;0.20;;;7.40;99.90;;;;;;4987008;28;20034;-79
2023/02/21 08:18:42;;;;;;;0.20;0.20;;;7.50;99.90;;;;;;4989648;28;20031;-79
2023/02/21 08:21:10;;;;;;;0.20;0.20;;;7.60;99.90;;;;;;4967663;29;20032;-78
2023/02/21 08:23:36;;;;;;;0.20;0.20;;;7.70;99.90;;;;;;4969305;28;20081;-78
2023/02/21 08:26:03;;;;;;;0.20;0.20;;;7.70;99.90;;;;;;4990452;28;20105;-78
2023/02/21 08:28:28;;;;;;;0.20;0.20;;;7.80;99.90;;;;;;4988325;28;20030;-78
2023/02/21 08:30:54;;;;;;;0.10;0.10;;;7.90;99.90;;;;;;4989167;28;20078;-78
2023/02/21 08:33:19;;;;;;;0.10;0.10;;;7.90;99.90;;;;;;4989243;28;20046;-78
2023/02/21 08:35:45;;;;;;;0.20;0.20;;;7.90;99.90;;;;;;4978007;28;20055;-78
2023/02/21 08:38:11;;;;;;;0.20;0.20;;;8.00;99.90;;;;;;4969766;29;20035;-77
2023/02/21 08:40:36;;;;;;;0.20;0.20;;;7.90;99.90;;;;;;4983199;28;20057;-78
2023/02/21 08:43:03;;;;;;;0.20;0.20;;;7.80;99.90;;;;;;5006935;28;20480;-78
2023/02/21 08:45:29;;;;;;;0.20;0.20;;;7.70;99.90;;;;;;5007314;28;20030;-79
2023/02/21 08:47:58;;;;;;;0.20;0.20;;;7.70;99.90;;;;;;5008552;28;20403;-78
2023/02/21 08:50:26;;;;;;;0.20;0.20;;;7.80;99.90;;;;;;5008371;28;20034;-78
2023/02/21 08:52:52;;;;;;;0.20;0.20;;;7.80;99.90;;;;;;5006843;28;20053;-78
2023/02/21 08:55:18;;;;;;;0.20;0.20;;;7.80;99.90;;;;;;4989112;28;20042;-78
2023/02/21 08:57:46;;;;;;;0.20;0.20;;;7.80;99.90;;;;;;4988258;28;20031;-78
2023/02/21 09:00:13;;;;;;;0.20;0.20;;;7.90;99.90;;;;;;4992267;28;20029;-78
2023/02/21 09:02:39;;;;;;;0.20;0.20;;;8.00;99.90;;;;;;5006980;28;20022;-78
2023/02/21 09:05:08;;;;;;;0.20;0.20;;;8.20;99.90;;;;;;5007303;28;20041;-78
2023/02/21 09:07:34;;;;;;;0.20;0.20;;;8.30;99.90;;;;;;5006655;28;20025;-78
2023/02/21 09:10:00;;;;;;;0.20;0.20;;;8.30;99.90;;;;;;5043499;23;20042;-78
2023/02/21 09:12:26;;;;;;;0.20;0.20;;;8.40;99.90;;;;;;5029899;28;20021;-79
2023/02/21 09:14:53;;;;;;;0.20;0.20;;;8.50;99.90;;;;;;5028326;28;20026;-78
2023/02/21 09:17:19;;;;;;;0.20;0.20;;;8.60;99.90;;;;;;5026595;28;20029;-79
2023/02/21 09:19:44;;;;;;;0.20;0.20;;;8.40;99.90;;;;;;5026869;28;20025;-79
2023/02/21 09:22:10;;;;;;;0.20;0.20;;;8.30;99.90;;;;;;5010464;28;20492;-79
2023/02/21 09:24:37;;;;;;;0.20;0.20;;;8.30;99.90;;;;;;5003530;28;20058;-78
2023/02/21 09:27:03;;;;;;;0.20;0.20;;;8.30;99.90;;;;;;5000066;28;20069;-77
2023/02/21 09:29:31;;;;;;;0.20;0.20;;;8.40;99.90;;;;;;5007382;23;20034;-77
2023/02/21 09:31:56;;;;;;;0.20;0.20;;;8.50;99.90;;;;;;4997584;28;20076;-77
2023/02/21 09:34:22;;;;;;;0.20;0.20;;;8.60;99.90;;;;;;4997178;28;20435;-78
2023/02/21 09:36:49;;;;;;;0.20;0.20;;;8.70;99.90;;;;;;4998769;28;20479;-78
2023/02/21 09:39:16;;;;;;;0.20;0.20;;;8.80;99.90;;;;;;4997220;28;20502;-78
2023/02/21 09:41:42;;;;;;;0.20;0.20;;;8.80;99.90;;;;;;4996962;28;20078;-77
2023/02/21 09:44:29;;;;;;;0.20;0.20;;;8.70;99.90;;;;;;4997371;28;20108;-77
2023/02/21 09:47:03;;;;;;;0.10;0.10;;;8.70;99.90;;;;;;4998762;28;20030;-78
2023/02/21 09:49:36;;;;;;;0.20;0.20;;;8.70;99.90;;;;;;4998492;28;20430;-78
2023/02/21 09:52:02;;;;;;;0.20;0.20;;;8.60;99.90;;;;;;5000552;28;20029;-77
2023/02/21 09:54:37;;;;;;;0.20;0.20;;;8.70;99.90;;;;;;5000743;28;20081;-78
2023/02/21 09:57:09;;;;;;;0.20;0.20;;;8.70;99.90;;;;;;4997547;28;20030;-78
2023/02/21 09:59:34;;;;;;;0.20;0.20;;;8.80;99.90;;;;;;5002370;28;20034;-78
2023/02/21 10:02:16;;;;;;;0.10;0.10;;;8.90;99.90;;;;;;5001934;28;20506;-79
2023/02/21 10:05:23;;;;;;;0.20;0.20;;;9.00;99.90;;;;;;5015894;28;20030;-79
2023/02/21 10:08:16;;;;;;;0.20;0.20;;;9.00;99.90;;;;;;5000511;28;20061;-78
2023/02/21 10:10:48;;;;;;;0.20;0.20;;;9.00;99.90;;;;;;4996542;28;20025;-77
2023/02/21 10:13:39;;;;;;;0.20;0.20;;;9.00;99.90;;;;;;5000072;28;20022;-78
2023/02/21 10:16:21;;;;;;;0.20;0.20;;;9.00;99.90;;;;;;5002163;28;20019;-78
2023/02/21 10:19:15;;;;;;;0.20;0.20;;;9.00;99.90;;;;;;5001994;28;20480;-78
2023/02/21 10:21:44;;;;;;;0.20;0.20;;;9.00;99.90;;;;;;5002658;28;20488;-77
2023/02/21 10:24:18;;;;;;;0.13;0.13;;;9.00;99.90;;;;;;5001246;28;20034;-78
2023/02/21 10:27:06;;;;;;;0.20;0.20;;;9.10;99.90;;;;;;5001709;28;20022;-78
2023/02/21 10:30:05;;;;;;;0.20;0.20;;;9.30;99.90;;;;;;5002023;28;20086;-77
2023/02/21 10:32:34;;;;;;;0.10;0.10;;;9.40;99.90;;;;;;5001842;28;20117;-78
2023/02/21 10:34:59;;;;;;;0.20;0.20;;;9.40;99.90;;;;;;5001892;28;20029;-78
2023/02/21 10:37:45;;;;;;;0.10;0.10;;;9.40;99.90;;;;;;5002172;28;20022;-78
2023/02/21 10:40:48;;;;;;;0.20;0.20;;;9.40;99.90;;;;;;5001336;28;20114;-77
2023/02/21 10:43:32;;;;;;;0.10;0.10;;;9.40;99.90;;;;;;5001823;28;20029;-78
2023/02/21 10:46:07;;;;;;;0.20;0.20;;;9.50;99.90;;;;;;5003138;28;20029;-78
2023/02/21 10:48:38;;;;;;;0.15;0.15;;;9.70;99.90;;;;;;5000408;28;20027;-78
2023/02/21 10:51:15;;;;;;;0.20;0.20;;;9.60;99.90;;;;;;4999893;28;20035;-78
2023/02/21 10:53:46;;;;;;;0.20;0.20;;;9.80;99.90;;;;;;5001640;28;20029;-78
2023/02/21 10:56:15;;;;;;;0.20;0.20;;;9.80;99.90;;;;;;5001074;28;20049;-78
2023/02/21 10:58:46;;;;;;;0.20;0.20;;;9.60;99.90;;;;;;4999930;28;20049;-78
2023/02/21 11:01:13;;;;;;;0.10;0.10;;;9.30;99.90;;;;;;5028980;23;20075;-77
2023/02/21 11:03:45;;;;;;;0.20;0.20;;;9.20;99.90;;;;;;4997433;28;20069;-77
2023/02/21 11:06:26;;;;;;;0.20;0.20;;;9.10;99.90;;;;;;4981356;28;20019;-77
2023/02/21 11:08:52;;;;;;;0.20;0.20;;;9.10;99.90;;;;;;4981885;28;20492;-78
2023/02/21 11:11:37;;;;;;;0.10;0.10;;;9.10;99.90;;;;;;4998822;28;20030;-78
2023/02/21 11:14:18;;;;;;;0.20;0.20;;;9.10;99.90;;;;;;4998751;28;20495;-78
2023/02/21 11:16:43;;;;;;;0.20;0.20;;;9.10;99.90;;;;;;4981307;28;20057;-78
2023/02/21 11:19:13;;;;;;;0.10;0.10;;;9.10;99.90;;;;;;4977815;28;20493;-78
2023/02/21 11:21:40;;;;;;;0.10;0.10;;;9.20;99.90;;;;;;5023387;23;20050;-78
2023/02/21 11:24:07;;;;;;;0.10;0.10;;;9.20;99.90;;;;;;5018406;28;20071;-77
2023/02/21 11:26:52;;;;;;;0.17;0.17;;;9.20;99.90;;;;;;5002590;28;20029;-77
2023/02/21 11:29:24;;;;;;;0.20;0.20;;;9.20;99.90;;;;;;4998980;28;20026;-79
2023/02/21 11:31:51;;;;;;;0.20;0.20;;;9.20;99.90;;;;;;4998445;28;20505;-78
2023/02/21 11:34:18;;;;;;;0.20;0.20;;;9.30;99.90;;;;;;4998916;28;20022;-78
2023/02/21 11:36:46;;;;;;;0.20;0.20;;;9.40;99.90;;;;;;4998442;28;20022;-77
2023/02/21 11:39:20;;;;;;;0.20;0.20;;;9.40;99.90;;;;;;4999369;28;20157;-78
2023/02/21 11:41:59;;;;;;;0.20;0.20;;;9.30;99.90;;;;;;4997618;28;20042;-78
2023/02/21 11:44:39;;;;;;;0.20;0.20;;;9.40;99.90;;;;;;4997212;28;20023;-77
2023/02/21 11:47:07;;;;;;;0.17;0.17;;;9.50;99.90;;;;;;5002330;28;20030;-78
2023/02/21 11:49:47;;;;;;;0.25;0.25;;;9.40;99.90;;;;;;5002483;28;20037;-78
2023/02/21 11:52:28;;;;;;;0.20;0.20;;;9.50;99.90;;;;;;5002602;28;20026;-77
2023/02/21 11:54:54;;;;;;;0.20;0.20;;;9.50;99.90;;;;;;4981361;28;20488;-78
2023/02/21 11:57:27;;;;;;;0.20;0.20;;;9.70;99.90;;;;;;4998196;28;20116;-77
2023/02/21 12:00:07;;;;;;;;;;;9.80;99.90;;;;;;5001324;28;20081;-77
2023/02/21 12:02:52;;;;;;;0.20;0.20;;;10.00;99.90;;;;;;5001014;28;19913;-77
2023/02/21 12:05:49;;;;;;;0.20;0.20;;;10.00;99.90;;;;;;4999614;28;20023;-77
2023/02/21 12:08:41;;;;;;;0.20;0.20;;;9.80;99.90;;;;;;5002716;28;20110;-78
2023/02/21 12:11:14;;;;;;;0.20;0.20;;;9.70;99.90;;;;;;4982403;28;20041;-78
2023/02/21 12:14:11;;;;;;;0.20;0.20;;;9.80;99.90;;;;;;5001822;28;20027;-78
2023/02/21 12:16:48;;;;;;;0.20;0.20;;;10.00;99.90;;;;;;5000921;28;20041;-78
2023/02/21 12:19:36;;;;;;;0.20;0.20;;;10.00;99.90;;;;;;5016306;28;20065;-78
2023/02/21 12:22:15;;;;;;;0.20;0.20;;;10.00;99.90;;;;;;5019831;28;20061;-78
2023/02/21 12:24:57;;;;;;;0.20;0.20;;;9.80;99.90;;;;;;5004645;28;20479;-78
2023/02/21 12:27:45;;;;;;;0.20;0.20;;;9.70;99.90;;;;;;4999668;28;20578;-77
2023/02/21 12:30:25;;;;;;;0.20;0.20;;;9.60;99.90;;;;;;4985370;28;20129;-77
2023/02/21 12:33:37;;;;;;;0.20;0.20;;;9.50;99.90;;;;;;4995403;28;20113;-78
2023/02/21 12:36:11;;;;;;;0.20;0.20;;;9.20;99.90;;;;;;4999727;28;20088;-78
2023/02/21 12:39:04;;;;;;;0.20;0.20;;;9.10;99.90;;;;;;4997633;28;20027;-78
2023/02/21 12:42:01;;;;;;;0.20;0.20;;;9.20;99.90;;;;;;4996530;28;20045;-77
2023/02/21 12:44:51;;;;;;;0.20;0.20;;;9.50;99.90;;;;;;4996773;28;20121;-78
2023/02/21 12:47:31;;;;;;;0.20;0.20;;;9.60;99.90;;;;;;5000113;28;20023;-77
2023/02/21 12:50:04;;;;;;;0.20;0.20;;;9.60;99.90;;;;;;4999565;28;20053;-77
2023/02/21 12:52:57;;;;;;;0.20;0.20;;;9.60;99.90;;;;;;4996495;28;20491;-77
2023/02/21 12:55:32;;;;;;;0.10;0.10;;;9.80;99.90;;;;;;4995100;28;20034;-77
2023/02/21 12:58:13;;;;;;;0.20;0.20;;;9.80;99.90;;;;;;4996616;28;20033;-77
2023/02/21 13:00:55;;;;;;;0.20;0.20;;;9.70;99.90;;;;;;4996091;28;20022;-77
2023/02/21 13:03:29;;;;;;;0.20;0.20;;;9.80;99.90;;;;;;4994736;28;20073;-77
2023/02/21 13:06:14;;;;;;;0.20;0.20;;;10.00;99.90;;;;;;4996724;28;20030;-77
2023/02/21 13:09:05;;;;;;;0.10;0.10;;;10.30;99.90;;;;;;4993456;28;20085;-76
2023/02/21 13:11:48;;;;;;;0.20;0.20;;;10.70;99.90;;;;;;5022991;23;20050;-77
2023/02/21 13:14:19;;;;;;;0.10;0.10;;;11.20;99.90;;;;;;5016899;28;20026;-77
2023/02/21 13:16:45;;;;;;;0.20;0.20;;;11.30;99.90;;;;;;5015989;28;20018;-77
2023/02/21 13:19:13;;;;;;;0.20;0.20;;;11.60;99.90;;;;;;5014803;28;20036;-77
2023/02/21 13:25:16;;;;;;;0.20;0.20;;;12.10;99.90;;;;;;5016272;28;20028;-76
2023/02/21 13:28:22;;;;;;;0.20;0.20;;;12.30;99.90;;;;;;5015628;28;20022;-77
2023/02/21 13:30:56;;;;;;;0.20;0.20;;;12.30;99.90;;;;;;4956177;28;20035;-77
2023/02/21 13:33:37;;;;;;;0.20;0.20;;;12.20;99.90;;;;;;4955583;29;20027;-77
2023/02/21 13:36:20;;;;;;;0.20;0.20;;;12.00;99.90;;;;;;4994242;28;20069;-75
2023/02/21 13:38:55;;;;;;;0.10;0.10;;;11.70;99.90;;;;;;5015653;28;20022;-76
2023/02/21 13:41:25;;;;;;;0.20;0.20;;;12.10;99.90;;;;;;5017490;28;20434;-77
2023/02/21 13:43:52;;;;;;;0.20;0.20;;;12.20;99.90;;;;;;5016787;28;20029;-77
2023/02/21 13:46:30;;;;;;;0.17;0.17;;;12.30;99.90;;;;;;5015184;28;20395;-77
2023/02/21 13:49:33;;;;;;;0.20;0.20;;;12.20;99.90;;;;;;5016155;28;20080;-77
2023/02/21 13:52:22;;;;;;;0.20;0.20;;;12.10;99.90;;;;;;5008968;28;20030;-77
2023/02/21 13:55:19;;;;;;;0.20;0.20;;;12.20;99.90;;;;;;4977181;28;20030;-77
2023/02/21 13:57:56;;;;;;;0.20;0.20;;;12.10;99.90;;;;;;4992568;28;20037;-77
2023/02/21 14:00:24;;;;;;;0.20;0.20;;;12.10;99.90;;;;;;5014776;28;20495;-77
2023/02/21 14:02:57;;;;;;;0.20;0.20;;;12.20;99.90;;;;;;5014503;28;20029;-77
2023/02/21 14:05:23;;;;;;;0.20;0.20;;;12.30;99.90;;;;;;5015150;28;20029;-77
2023/02/21 14:07:59;;;;;;;0.10;0.10;;;12.20;99.90;;;;;;5015002;28;20076;-76
2023/02/21 14:10:37;;;;;;;0.20;0.20;;;12.10;99.90;;;;;;5015066;28;20092;-75
2023/02/21 14:13:16;;;;;;;0.20;0.20;;;11.90;99.90;;;;;;5013975;28;20026;-76
2023/02/21 14:15:48;;;;;;;0.20;0.20;;;11.80;99.90;;;;;;4995494;28;20026;-76
2023/02/21 14:18:21;;;;;;;0.10;0.10;;;11.70;99.90;;;;;;4995156;28;20026;-76
2023/02/21 14:20:53;;;;;;;0.20;0.20;;;11.60;99.90;;;;;;4993122;28;20023;-76
2023/02/21 14:23:21;;;;;;;0.10;0.10;;;11.60;99.90;;;;;;4989057;28;20034;-76
2023/02/21 14:25:55;;;;;;;0.20;0.20;;;12.00;99.90;;;;;;4995235;28;20073;-76
2023/02/21 14:28:58;;;;;;;0.20;0.20;;;12.00;99.90;;;;;;4993915;28;20026;-76
2023/02/21 14:31:52;;;;;;;0.20;0.20;;;12.20;99.90;;;;;;4975659;28;20033;-76
2023/02/21 14:34:33;;;;;;;0.20;0.20;;;12.30;99.90;;;;;;4974022;28;20114;-76
2023/02/21 14:37:30;;;;;;;0.20;0.20;;;12.00;99.90;;;;;;4975412;28;20106;-76
2023/02/21 14:40:30;;;;;;;0.20;0.20;;;11.90;99.90;;;;;;4974312;28;20031;-76
2023/02/21 14:43:31;;;;;;;0.20;0.20;;;12.20;99.90;;;;;;5014001;28;20022;-76
2023/02/21 14:46:19;;;;;;;0.20;0.20;;;11.70;99.90;;;;;;5014481;28;20476;-76
2023/02/21 14:49:16;;;;;;;0.20;0.20;;;11.40;99.90;;;;;;5013272;28;20037;-76
2023/02/21 14:52:22;;;;;;;0.20;0.20;;;11.40;99.90;;;;;;5013592;28;20184;-76
2023/02/21 14:55:28;;;;;;;0.20;0.20;;;11.50;99.90;;;;;;4963410;28;20440;-76
2023/02/21 14:58:08;;;;;;;0.10;0.10;;;11.80;99.90;;;;;;4990738;28;20026;-76
2023/02/21 15:01:03;;;;;;;0.20;0.20;;;12.00;99.90;;;;;;5002421;23;20053;-76
2023/02/21 15:03:34;;;;;;;0.10;0.10;;;12.20;99.90;;;;;;5014887;28;20072;-76
2023/02/21 15:06:07;;;;;;;0.10;0.10;;;12.20;99.90;;;;;;5014583;28;20034;-76
2023/02/21 15:08:44;;;;;;;0.20;0.20;;;12.10;99.90;;;;;;5014822;28;20025;-76
2023/02/21 15:11:21;;;;;;;0.13;0.13;;;12.30;99.90;;;;;;5014786;28;20041;-76
2023/02/21 15:13:47;;;;;;;0.20;0.20;;;11.90;99.90;;;;;;5014917;28;20055;-76
2023/02/21 15:16:14;;;;;;;0.15;0.15;;;12.10;99.90;;;;;;5033900;23;20096;-75
2023/02/21 15:18:56;;;;;;;0.10;0.10;;;12.00;99.90;;;;;;5013682;28;20022;-76
2023/02/21 15:21:22;;;;;;;0.20;0.20;;;12.00;99.90;;;;;;5016389;28;20026;-75
2023/02/21 15:24:11;;;;;;;0.10;0.10;;;11.80;99.90;;;;;;5016436;28;20030;-76
2023/02/21 15:26:37;;;;;;;0.20;0.20;;;11.70;99.90;;;;;;5016311;28;20017;-75
2023/02/21 15:29:05;;;;;;;0.20;0.20;;;11.70;99.90;;;;;;5016611;28;20432;-75
2023/02/21 15:31:34;;;;;;;0.20;0.20;;;11.50;99.90;;;;;;5016057;28;20041;-75
2023/02/21 15:33:59;;;;;;;0.20;0.20;;;11.20;99.90;;;;;;5016217;28;20503;-75
2023/02/21 15:36:26;;;;;;;0.20;0.20;;;10.90;99.90;;;;;;5015758;28;20038;-75
2023/02/21 15:39:03;;;;;;;0.20;0.20;;;10.60;99.90;;;;;;5016273;28;20606;-75
2023/02/21 15:41:33;;;;;;;0.20;0.20;;;10.20;99.90;;;;;;5016131;28;20022;-75
2023/02/21 15:44:04;;;;;;;0.22;0.22;;;10.30;99.90;;;;;;5016194;28;20025;-75